createdAt,value
2023-03-17T00:01:55.895Z,7.20
2023-03-17T00:04:25.734Z,7.20
2023-03-17T00:06:54.297Z,7.30
2023-03-17T00:09:23.253Z,7.30
2023-03-17T00:11:51.903Z,7.30
2023-03-17T00:14:20.671Z,7.30
2023-03-17T00:16:51.465Z,7.30
2023-03-17T00:19:29.798Z,7.20
2023-03-17T00:21:59.042Z,7.20
2023-03-17T00:24:27.438Z,7.10
2023-03-17T00:26:55.641Z,7.10
2023-03-17T00:29:24.175Z,7.10
2023-03-17T00:31:52.602Z,7.10
2023-03-17T00:34:25.130Z,7.00
2023-03-17T00:36:53.566Z,7.00
2023-03-17T00:39:24.185Z,7.00
2023-03-17T00:41:54.972Z,7.00
2023-03-17T00:44:24.067Z,7.00
2023-03-17T00:46:52.433Z,7.10
2023-03-17T00:49:24.706Z,7.10
2023-03-17T00:51:54.262Z,7.00
2023-03-17T00:54:23.499Z,7.00
2023-03-17T00:56:53.059Z,7.00
2023-03-17T00:59:27.646Z,7.00
2023-03-17T01:01:56.374Z,6.90
2023-03-17T01:04:26.107Z,6.90
2023-03-17T01:06:54.469Z,6.90
2023-03-17T01:09:27.454Z,6.90
2023-03-17T01:11:56.190Z,6.90
2023-03-17T01:14:25.720Z,6.80
2023-03-17T01:16:55.079Z,6.80
2023-03-17T01:19:25.386Z,6.80
2023-03-17T01:21:53.556Z,6.70
2023-03-17T01:24:21.859Z,6.70
2023-03-17T01:26:50.846Z,6.70
2023-03-17T01:29:19.137Z,6.80
2023-03-17T01:31:47.803Z,6.80
2023-03-17T01:34:16.493Z,6.90
2023-03-17T01:36:46.672Z,6.90
2023-03-17T01:39:15.652Z,7.00
2023-03-17T01:41:45.581Z,7.00
2023-03-17T01:44:18.392Z,7.00
2023-03-17T01:46:47.395Z,7.00
2023-03-17T01:49:29.979Z,7.00
2023-03-17T01:52:06.248Z,7.10
2023-03-17T01:54:40.981Z,7.10
2023-03-17T01:57:16.391Z,7.10
2023-03-17T01:59:49.453Z,7.10
2023-03-17T02:02:24.620Z,7.00
2023-03-17T02:04:54.129Z,7.00
2023-03-17T02:07:26.578Z,7.00
2023-03-17T02:09:55.847Z,6.90
2023-03-17T02:12:25.983Z,6.90
2023-03-17T02:14:54.591Z,6.80
2023-03-17T02:17:27.213Z,6.80
2023-03-17T02:19:56.239Z,6.70
2023-03-17T02:22:26.083Z,6.70
2023-03-17T02:24:58.360Z,6.70
2023-03-17T02:27:34.718Z,6.70
2023-03-17T02:30:03.131Z,6.60
2023-03-17T02:32:31.474Z,6.60
2023-03-17T02:34:59.632Z,6.60
2023-03-17T02:37:29.299Z,6.50
2023-03-17T02:39:57.861Z,6.50
2023-03-17T02:42:26.346Z,6.40
2023-03-17T02:44:54.877Z,6.30
2023-03-17T02:47:23.119Z,6.30
2023-03-17T02:49:51.649Z,6.20
2023-03-17T02:52:19.974Z,6.20
2023-03-17T02:54:49.900Z,6.20
2023-03-17T02:57:18.081Z,6.10
2023-03-17T02:59:46.399Z,6.10
2023-03-17T03:02:15.404Z,6.00
2023-03-17T03:04:44.132Z,6.00
2023-03-17T03:07:12.586Z,5.90
2023-03-17T03:09:41.975Z,5.90
2023-03-17T03:12:13.871Z,5.80
2023-03-17T03:14:42.477Z,5.80
2023-03-17T03:17:11.055Z,5.80
2023-03-17T03:19:39.514Z,5.80
2023-03-17T03:22:08.342Z,5.80
2023-03-17T03:24:36.789Z,5.80
2023-03-17T03:27:05.211Z,5.80
2023-03-17T03:29:34.752Z,5.80
2023-03-17T03:32:03.107Z,5.80
2023-03-17T03:34:31.874Z,5.90
2023-03-17T03:37:00.050Z,5.90
2023-03-17T03:39:28.303Z,5.90
2023-03-17T03:41:58.154Z,5.90
2023-03-17T03:44:26.408Z,5.90
2023-03-17T03:46:55.865Z,5.80
2023-03-17T03:49:24.432Z,5.70
2023-03-17T03:51:52.656Z,5.70
2023-03-17T03:54:20.798Z,5.60
2023-03-17T03:56:48.945Z,5.60
2023-03-17T03:59:17.457Z,5.50
2023-03-17T04:01:45.673Z,5.50
2023-03-17T04:04:15.460Z,5.40
2023-03-17T04:06:43.671Z,5.40
2023-03-17T04:09:12.622Z,5.40
2023-03-17T04:11:40.832Z,5.30
2023-03-17T04:14:09.020Z,5.20
2023-03-17T04:16:37.266Z,5.10
2023-03-17T04:19:05.426Z,5.10
2023-03-17T04:21:34.945Z,5.00
2023-03-17T04:24:05.156Z,4.90
2023-03-17T04:26:33.789Z,4.90
2023-03-17T04:29:01.994Z,4.90
2023-03-17T04:31:30.745Z,4.80
2023-03-17T04:33:58.843Z,4.80
2023-03-17T04:36:27.044Z,4.70
2023-03-17T04:38:56.492Z,4.60
2023-03-17T04:41:24.768Z,4.50
2023-03-17T04:43:52.942Z,4.50
2023-03-17T04:46:21.351Z,4.40
2023-03-17T04:48:49.528Z,4.30
2023-03-17T04:51:18.056Z,4.30
2023-03-17T04:53:46.225Z,4.20
2023-03-17T04:56:16.128Z,4.20
2023-03-17T04:58:44.315Z,4.10
2023-03-17T05:01:12.621Z,4.00
2023-03-17T05:03:40.995Z,3.90
2023-03-17T05:06:09.387Z,3.90
2023-03-17T05:08:37.883Z,3.90
2023-03-17T05:11:07.266Z,3.90
2023-03-17T05:13:36.734Z,3.80
2023-03-17T05:16:05.913Z,3.80
2023-03-17T05:18:34.410Z,3.80
2023-03-17T05:21:02.724Z,3.80
2023-03-17T05:23:31.058Z,3.80
2023-03-17T05:25:59.314Z,3.80
2023-03-17T05:28:28.220Z,3.70
2023-03-17T05:30:58.261Z,3.70
2023-03-17T05:33:27.767Z,3.60
2023-03-17T05:35:56.139Z,3.60
2023-03-17T05:38:25.070Z,3.50
2023-03-17T05:40:53.687Z,3.40
2023-03-17T05:43:22.100Z,3.40
2023-03-17T05:45:50.992Z,3.30
2023-03-17T05:48:21.094Z,3.30
2023-03-17T05:50:49.564Z,3.30
2023-03-17T05:53:18.697Z,3.30
2023-03-17T05:55:46.970Z,3.30
2023-03-17T05:58:15.721Z,3.30
2023-03-17T06:00:44.729Z,3.30
2023-03-17T06:03:12.946Z,3.30
2023-03-17T06:05:42.637Z,3.40
2023-03-17T06:08:10.814Z,3.40
2023-03-17T06:10:39.011Z,3.50
2023-03-17T06:13:07.349Z,3.50
2023-03-17T06:15:36.864Z,3.60
2023-03-17T06:18:06.145Z,3.70
2023-03-17T06:20:34.964Z,4.00
2023-03-17T06:23:05.968Z,4.50
2023-03-17T06:25:35.106Z,5.10
2023-03-17T06:28:04.079Z,5.70
2023-03-17T06:30:33.779Z,6.20
2023-03-17T06:33:02.522Z,6.80
2023-03-17T06:35:31.801Z,7.30
2023-03-17T06:38:00.827Z,7.60
2023-03-17T06:40:31.018Z,7.70
2023-03-17T06:42:59.568Z,7.70
2023-03-17T06:45:28.135Z,7.70
2023-03-17T06:47:57.015Z,7.80
2023-03-17T06:50:25.513Z,8.00
2023-03-17T06:52:53.929Z,8.20
2023-03-17T06:55:22.438Z,8.50
2023-03-17T06:57:52.395Z,8.80
2023-03-17T07:00:22.496Z,9.20
2023-03-17T07:02:51.232Z,9.60
2023-03-17T07:05:19.538Z,10.10
2023-03-17T07:07:47.746Z,10.60
2023-03-17T07:10:17.198Z,11.20
2023-03-17T07:12:45.727Z,11.70
2023-03-17T07:15:15.587Z,12.00
2023-03-17T07:17:43.981Z,11.90
2023-03-17T07:20:13.848Z,12.00
2023-03-17T07:22:42.430Z,12.40
2023-03-17T07:25:11.496Z,13.10
2023-03-17T07:27:40.269Z,13.70
2023-03-17T07:30:10.898Z,14.30
2023-03-17T07:32:40.471Z,15.00
2023-03-17T07:35:08.985Z,15.30
2023-03-17T07:37:37.148Z,15.60
2023-03-17T07:40:09.027Z,15.80
2023-03-17T07:42:37.401Z,15.80
2023-03-17T07:45:07.938Z,15.90
2023-03-17T07:47:36.428Z,16.00
2023-03-17T07:50:07.271Z,16.20
2023-03-17T07:52:35.433Z,16.30
2023-03-17T07:55:03.736Z,16.00
2023-03-17T07:57:31.923Z,15.60
2023-03-17T08:00:01.210Z,15.50
2023-03-17T08:02:39.949Z,15.70
2023-03-17T08:05:11.429Z,16.00
2023-03-17T08:07:40.449Z,16.40
2023-03-17T08:10:11.576Z,16.80
2023-03-17T08:12:40.626Z,16.90
2023-03-17T08:15:10.347Z,17.10
2023-03-17T08:17:39.705Z,17.40
2023-03-17T08:20:11.541Z,17.70
2023-03-17T08:22:39.700Z,17.80
2023-03-17T08:25:09.540Z,18.10
2023-03-17T08:27:37.704Z,18.70
2023-03-17T08:30:07.871Z,19.50
2023-03-17T08:32:36.607Z,20.00
2023-03-17T08:35:06.385Z,20.00
2023-03-17T08:37:36.110Z,20.60
2023-03-17T08:40:05.372Z,20.60
2023-03-17T08:42:33.496Z,20.70
2023-03-17T08:45:01.757Z,21.40
2023-03-17T08:47:29.942Z,22.40
2023-03-17T08:50:00.188Z,23.20
2023-03-17T08:52:28.781Z,23.80
2023-03-17T08:54:58.320Z,24.60
2023-03-17T08:57:26.889Z,25.40
2023-03-17T08:59:55.857Z,25.60
2023-03-17T09:02:24.064Z,25.70
2023-03-17T09:04:52.792Z,26.10
2023-03-17T09:07:21.712Z,26.00
2023-03-17T09:09:49.866Z,26.20
2023-03-17T09:12:19.443Z,26.60
2023-03-17T09:14:49.401Z,27.20
2023-03-17T09:17:17.961Z,28.10
2023-03-17T09:19:46.945Z,29.10
2023-03-17T09:22:17.538Z,29.70
2023-03-17T09:24:46.598Z,30.40
2023-03-17T09:27:14.985Z,30.80
2023-03-17T09:29:44.540Z,31.30
2023-03-17T09:32:12.757Z,31.50
2023-03-17T09:34:41.966Z,31.60
2023-03-17T09:37:11.034Z,31.70
2023-03-17T09:39:39.333Z,32.10
2023-03-17T09:42:24.351Z,32.60
2023-03-17T09:45:12.319Z,32.90
2023-03-17T09:47:56.463Z,33.30
2023-03-17T09:50:30.234Z,33.60
2023-03-17T09:53:03.447Z,33.70
2023-03-17T09:55:34.134Z,32.00
2023-03-17T09:58:03.489Z,31.70
2023-03-17T10:00:34.711Z,31.90
2023-03-17T10:03:03.493Z,32.20
2023-03-17T10:05:34.674Z,32.40
2023-03-17T10:08:28.966Z,32.40
2023-03-17T10:11:09.410Z,33.10
2023-03-17T10:13:51.694Z,33.40
2023-03-17T10:16:34.653Z,33.20
2023-03-17T10:19:07.592Z,33.00
2023-03-17T10:21:41.013Z,32.70
2023-03-17T10:24:12.230Z,33.10
2023-03-17T10:26:45.902Z,33.50
2023-03-17T10:29:17.755Z,33.60
2023-03-17T10:31:47.606Z,33.30
2023-03-17T10:34:18.030Z,33.10
2023-03-17T10:36:50.965Z,33.20
2023-03-17T10:39:21.676Z,33.20
2023-03-17T10:41:56.977Z,34.00
2023-03-17T10:44:43.923Z,34.20
2023-03-17T10:47:31.548Z,33.90
2023-03-17T10:50:05.618Z,33.60
2023-03-17T10:52:40.692Z,32.80
2023-03-17T10:55:14.308Z,31.90
2023-03-17T10:57:52.684Z,30.90
2023-03-17T11:00:23.338Z,30.50
2023-03-17T11:02:58.862Z,30.30
2023-03-17T11:05:29.618Z,30.00
2023-03-17T11:08:12.626Z,30.30
2023-03-17T11:10:42.577Z,30.70
2023-03-17T11:13:11.343Z,30.60
2023-03-17T11:15:44.333Z,30.70
2023-03-17T11:18:21.392Z,31.00
2023-03-17T11:20:55.489Z,31.00
2023-03-17T11:23:38.613Z,31.30
2023-03-17T11:26:28.854Z,32.20
2023-03-17T11:29:24.401Z,32.50
2023-03-17T11:32:01.400Z,32.10
2023-03-17T11:34:48.953Z,30.90
2023-03-17T11:37:31.464Z,30.30
2023-03-17T11:40:08.738Z,30.10
2023-03-17T11:42:45.743Z,29.90
2023-03-17T11:45:25.088Z,30.20
2023-03-17T11:48:20.789Z,30.10
2023-03-17T11:50:57.588Z,29.60
2023-03-17T11:53:47.260Z,29.20
2023-03-17T11:56:20.911Z,29.30
2023-03-17T11:58:54.976Z,29.30
2023-03-17T12:01:28.238Z,28.90
2023-03-17T12:04:10.674Z,28.60
2023-03-17T12:06:47.416Z,28.30
2023-03-17T12:09:26.912Z,28.20
2023-03-17T12:11:57.010Z,28.50
2023-03-17T12:14:31.074Z,29.00
2023-03-17T12:17:07.481Z,29.00
2023-03-17T12:19:43.272Z,29.40
2023-03-17T12:22:22.647Z,29.40
2023-03-17T12:25:04.344Z,29.30
2023-03-17T12:27:38.044Z,29.10
2023-03-17T12:30:18.927Z,28.80
2023-03-17T12:32:55.201Z,28.30
2023-03-17T12:35:29.746Z,28.10
2023-03-17T12:38:02.832Z,27.80
2023-03-17T12:40:36.514Z,27.50
2023-03-17T12:43:27.359Z,27.30
2023-03-17T12:46:14.296Z,27.50
2023-03-17T12:49:14.276Z,27.20
2023-03-17T12:52:23.301Z,27.60
2023-03-17T12:54:53.736Z,28.00
2023-03-17T12:57:28.122Z,27.90
2023-03-17T13:00:05.549Z,27.50
2023-03-17T13:02:39.516Z,27.60
2023-03-17T13:05:11.757Z,27.80
2023-03-17T13:07:48.145Z,27.60
2023-03-17T13:10:38.267Z,27.50
2023-03-17T13:13:23.496Z,27.30
2023-03-17T13:16:01.408Z,27.30
2023-03-17T13:18:53.846Z,26.90
2023-03-17T13:21:26.353Z,26.50
2023-03-17T13:24:21.149Z,26.30
2023-03-17T13:27:01.677Z,26.20
2023-03-17T13:29:47.188Z,26.10
2023-03-17T13:32:35.890Z,26.00
2023-03-17T13:35:42.944Z,25.80
2023-03-17T13:38:52.522Z,25.80
2023-03-17T13:42:05.584Z,25.80
2023-03-17T13:45:05.494Z,25.80
2023-03-17T13:47:35.916Z,25.70
2023-03-17T13:50:09.624Z,25.70
2023-03-17T13:52:44.560Z,25.60
2023-03-17T13:55:40.936Z,25.70
2023-03-17T13:58:34.257Z,25.60
2023-03-17T14:01:09.038Z,25.40
2023-03-17T14:03:43.782Z,25.30
2023-03-17T14:06:14.352Z,25.20
2023-03-17T14:08:49.093Z,25.10
2023-03-17T14:11:33.592Z,25.00
2023-03-17T14:14:32.654Z,25.10
2023-03-17T14:17:10.835Z,25.00
2023-03-17T14:19:41.670Z,24.90
2023-03-17T14:22:24.635Z,24.80
2023-03-17T14:24:54.740Z,24.60
2023-03-17T14:27:25.063Z,24.50
2023-03-17T14:29:54.791Z,24.50
2023-03-17T14:32:26.474Z,24.30
2023-03-17T14:35:00.308Z,24.30
2023-03-17T14:37:29.609Z,24.20
2023-03-17T14:40:00.125Z,24.10
2023-03-17T14:42:30.664Z,24.10
2023-03-17T14:45:06.505Z,24.10
2023-03-17T14:47:41.141Z,24.00
2023-03-17T14:50:32.222Z,23.90
2023-03-17T14:53:01.659Z,24.00
2023-03-17T14:55:39.689Z,24.00
2023-03-17T14:58:12.033Z,24.00
2023-03-17T15:00:46.850Z,23.90
2023-03-17T15:03:22.255Z,23.90
2023-03-17T15:05:51.419Z,23.80
2023-03-17T15:08:42.635Z,23.70
2023-03-17T15:11:24.302Z,23.50
2023-03-17T15:13:57.934Z,23.30
2023-03-17T15:16:31.119Z,23.10
2023-03-17T15:19:07.551Z,22.90
2023-03-17T15:21:40.896Z,22.70
2023-03-17T15:24:26.950Z,22.60
2023-03-17T15:27:07.253Z,22.40
2023-03-17T15:29:35.750Z,22.40
2023-03-17T15:32:14.161Z,22.40
2023-03-17T15:34:42.886Z,22.40
2023-03-17T15:37:20.459Z,22.30
2023-03-17T15:39:49.645Z,22.30
2023-03-17T15:42:20.390Z,22.10
2023-03-17T15:44:48.696Z,22.10
2023-03-17T15:47:20.893Z,22.00
2023-03-17T15:49:50.898Z,21.90
2023-03-17T15:52:22.951Z,21.80
2023-03-17T15:57:29.544Z,21.60
2023-03-17T15:59:57.760Z,21.60
2023-03-17T16:02:34.015Z,21.50
2023-03-17T16:05:05.958Z,21.40
2023-03-17T16:07:34.149Z,21.30
2023-03-17T16:10:02.333Z,21.20
2023-03-17T16:12:30.640Z,21.10
2023-03-17T16:14:58.782Z,21.10
2023-03-17T16:17:32.160Z,20.90
2023-03-17T16:20:01.192Z,20.80
2023-03-17T16:22:41.833Z,20.70
2023-03-17T16:25:24.745Z,20.60
2023-03-17T16:27:54.220Z,20.30
2023-03-17T16:30:25.817Z,20.10
2023-03-17T16:32:59.143Z,20.00
2023-03-17T16:35:27.649Z,20.00
2023-03-17T16:37:56.224Z,19.90
2023-03-17T16:40:27.711Z,19.70
2023-03-17T16:42:55.986Z,19.60
2023-03-17T16:45:29.776Z,19.40
2023-03-17T16:48:01.369Z,19.20
2023-03-17T16:50:32.594Z,19.10
2023-03-17T16:53:03.898Z,19.00
2023-03-17T16:55:32.458Z,18.80
2023-03-17T16:58:04.998Z,18.70
2023-03-17T17:00:33.833Z,18.60
2023-03-17T17:03:05.941Z,18.50
2023-03-17T17:05:34.179Z,18.40
2023-03-17T17:08:02.517Z,18.40
2023-03-17T17:10:34.116Z,18.30
2023-03-17T17:13:02.847Z,18.20
2023-03-17T17:15:31.776Z,18.10
2023-03-17T17:18:06.095Z,17.90
2023-03-17T17:20:37.648Z,17.90
2023-03-17T17:23:07.424Z,17.80
2023-03-17T17:25:35.642Z,17.80
2023-03-17T17:28:04.150Z,17.70
2023-03-17T17:30:33.325Z,17.60
2023-03-17T17:33:03.893Z,17.50
2023-03-17T17:35:33.843Z,17.50
2023-03-17T17:38:02.345Z,17.40
2023-03-17T17:40:32.164Z,17.40
2023-03-17T17:43:00.684Z,17.30
2023-03-17T17:45:28.827Z,17.20
2023-03-17T17:47:57.183Z,17.10
2023-03-17T17:50:29.882Z,17.00
2023-03-17T17:53:04.904Z,16.90
2023-03-17T17:55:34.525Z,16.80
2023-03-17T17:58:02.732Z,16.70
2023-03-17T18:00:32.642Z,16.60
2023-03-17T18:03:01.053Z,16.50
2023-03-17T18:05:32.162Z,16.40
2023-03-17T18:08:02.262Z,16.40
2023-03-17T18:10:31.718Z,16.30
2023-03-17T18:13:00.431Z,16.20
2023-03-17T18:15:29.097Z,16.10
2023-03-17T18:17:57.705Z,16.00
2023-03-17T18:20:27.119Z,15.90
2023-03-17T18:22:56.819Z,15.80
2023-03-17T18:25:27.087Z,15.80
2023-03-17T18:27:56.296Z,15.80
2023-03-17T18:30:27.080Z,15.80
2023-03-17T18:33:01.495Z,15.70
2023-03-17T18:35:30.676Z,15.60
2023-03-17T18:38:01.505Z,15.50
2023-03-17T18:40:29.929Z,15.40
2023-03-17T18:42:58.420Z,15.40
2023-03-17T18:45:26.629Z,15.30
2023-03-17T18:47:54.832Z,15.30
2023-03-17T18:50:23.161Z,15.20
2023-03-17T18:52:51.995Z,15.20
2023-03-17T18:55:21.703Z,15.00
2023-03-17T18:57:49.887Z,15.00
2023-03-17T19:00:19.308Z,14.90
2023-03-17T19:02:47.886Z,14.90
2023-03-17T19:05:16.337Z,14.80
2023-03-17T19:07:44.709Z,14.70
2023-03-17T19:10:14.112Z,14.70
2023-03-17T19:12:45.391Z,14.60
2023-03-17T19:15:15.195Z,14.60
2023-03-17T19:17:43.408Z,14.50
2023-03-17T19:20:13.300Z,14.40
2023-03-17T19:22:41.740Z,14.30
2023-03-17T19:25:11.242Z,14.20
2023-03-17T19:27:39.944Z,14.20
2023-03-17T19:30:11.702Z,14.10
2023-03-17T19:32:40.132Z,13.90
2023-03-17T19:35:09.671Z,13.80
2023-03-17T19:37:38.128Z,13.60
2023-03-17T19:40:09.714Z,13.60
2023-03-17T19:42:38.357Z,13.60
2023-03-17T19:45:09.614Z,13.50
2023-03-17T19:47:37.904Z,13.50
2023-03-17T19:50:07.649Z,13.50
2023-03-17T19:52:35.808Z,13.50
2023-03-17T19:55:05.925Z,13.40
2023-03-17T19:57:35.589Z,13.40
2023-03-17T20:00:04.034Z,13.30
2023-03-17T20:02:39.703Z,13.30
2023-03-17T20:05:09.518Z,13.10
2023-03-17T20:07:37.995Z,13.00
2023-03-17T20:10:08.053Z,12.90
2023-03-17T20:12:38.077Z,12.80
2023-03-17T20:15:08.553Z,12.70
2023-03-17T20:17:37.381Z,12.50
2023-03-17T20:20:10.729Z,12.40
2023-03-17T20:22:40.375Z,12.30
2023-03-17T20:25:10.305Z,12.20
2023-03-17T20:27:38.916Z,12.10
2023-03-17T20:30:09.493Z,12.00
2023-03-17T20:32:38.092Z,11.90
2023-03-17T20:35:09.070Z,11.90
2023-03-17T20:37:38.698Z,11.90
2023-03-17T20:40:09.890Z,11.80
2023-03-17T20:42:38.156Z,11.80
2023-03-17T20:45:07.591Z,11.70
2023-03-17T20:47:36.132Z,11.70
2023-03-17T20:50:04.568Z,11.60
2023-03-17T20:52:34.080Z,11.60
2023-03-17T20:55:02.553Z,11.50
2023-03-17T20:57:30.743Z,11.50
2023-03-17T20:59:59.092Z,11.40
2023-03-17T21:02:27.359Z,11.30
2023-03-17T21:04:55.719Z,11.30
2023-03-17T21:07:24.138Z,11.30
2023-03-17T21:09:56.423Z,11.20
2023-03-17T21:12:25.375Z,11.20
2023-03-17T21:14:53.484Z,11.10
2023-03-17T21:17:22.745Z,11.00
2023-03-17T21:19:51.130Z,11.00
2023-03-17T21:22:19.437Z,11.00
2023-03-17T21:24:47.743Z,10.90
2023-03-17T21:27:17.847Z,10.90
2023-03-17T21:29:48.011Z,10.80
2023-03-17T21:32:16.585Z,10.70
2023-03-17T21:34:45.002Z,10.60
2023-03-17T21:37:13.113Z,10.60
2023-03-17T21:39:41.239Z,10.60
2023-03-17T21:42:10.522Z,10.60
2023-03-17T21:44:42.115Z,10.60
2023-03-17T21:47:10.344Z,10.50
2023-03-17T21:49:38.923Z,10.50
2023-03-17T21:52:07.107Z,10.50
2023-03-17T21:54:37.061Z,10.40
2023-03-17T21:57:05.808Z,10.40
2023-03-17T21:59:35.691Z,10.40
2023-03-17T22:02:06.532Z,10.40
2023-03-17T22:04:34.669Z,10.30
2023-03-17T22:07:04.399Z,10.20
2023-03-17T22:09:32.625Z,10.10
2023-03-17T22:12:00.800Z,10.10
2023-03-17T22:14:28.989Z,10.10
2023-03-17T22:16:57.338Z,10.10
2023-03-17T22:19:27.130Z,10.10
2023-03-17T22:21:55.889Z,10.10
2023-03-17T22:24:25.417Z,10.10
2023-03-17T22:26:53.604Z,10.10
2023-03-17T22:29:21.754Z,10.00
2023-03-17T22:31:50.097Z,10.00
2023-03-17T22:34:18.315Z,10.00
2023-03-17T22:36:47.799Z,9.90
2023-03-17T22:39:16.188Z,9.90
2023-03-17T22:41:44.997Z,9.90
2023-03-17T22:44:13.195Z,9.90
2023-03-17T22:46:41.794Z,9.90
2023-03-17T22:49:11.278Z,9.80
2023-03-17T22:51:41.153Z,9.80
2023-03-17T22:54:12.691Z,9.80
2023-03-17T22:56:40.911Z,9.80
2023-03-17T22:59:09.173Z,9.70
2023-03-17T23:01:37.522Z,9.60
2023-03-17T23:04:05.842Z,9.60
2023-03-17T23:06:35.120Z,9.60
2023-03-17T23:09:03.282Z,9.70
2023-03-17T23:11:32.840Z,9.60
2023-03-17T23:14:00.947Z,9.60
2023-03-17T23:16:29.206Z,9.60
2023-03-17T23:18:58.078Z,9.60
2023-03-17T23:21:31.745Z,9.60
2023-03-17T23:24:00.553Z,9.50
2023-03-17T23:26:30.019Z,9.50
2023-03-17T23:28:59.666Z,9.50
2023-03-17T23:31:27.945Z,9.40
2023-03-17T23:33:56.716Z,9.40
2023-03-17T23:36:25.057Z,9.30
2023-03-17T23:38:53.438Z,9.30
2023-03-17T23:41:22.654Z,9.30
2023-03-17T23:43:51.007Z,9.20
2023-03-17T23:46:20.996Z,9.10
2023-03-17T23:48:50.384Z,9.10
2023-03-17T23:51:18.812Z,9.10
2023-03-17T23:53:48.043Z,9.00
2023-03-17T23:56:16.235Z,8.90
2023-03-17T23:58:44.645Z,8.90
